sensor_id;sensor_type;location;lat;lon;timestamp;pressure;altitude;pressure_sealevel;temperature;humidity
63731;BME280;49747;51.334;6.830;2022-12-29T00:01:45;99793.03;;;12.41;94.16
63731;BME280;49747;51.334;6.830;2022-12-29T00:04:13;99798.06;;;12.44;94.69
63731;BME280;49747;51.334;6.830;2022-12-29T00:06:44;99790.38;;;12.41;95.51
63731;BME280;49747;51.334;6.830;2022-12-29T00:09:11;99771.31;;;12.36;96.00
63731;BME280;49747;51.334;6.830;2022-12-29T00:11:38;99771.88;;;12.39;95.78
63731;BME280;49747;51.334;6.830;2022-12-29T00:14:08;99766.72;;;12.38;96.54
63731;BME280;49747;51.334;6.830;2022-12-29T00:16:53;99771.72;;;12.41;96.34
63731;BME280;49747;51.334;6.830;2022-12-29T00:19:20;99760.09;;;12.42;95.89
63731;BME280;49747;51.334;6.830;2022-12-29T00:22:06;99748.47;;;12.43;96.15
63731;BME280;49747;51.334;6.830;2022-12-29T00:24:51;99750.41;;;12.41;96.19
63731;BME280;49747;51.334;6.830;2022-12-29T00:27:36;99747.63;;;12.42;96.02
63731;BME280;49747;51.334;6.830;2022-12-29T00:30:24;99748.47;;;12.43;96.19
63731;BME280;49747;51.334;6.830;2022-12-29T00:33:15;99758.97;;;12.44;96.04
63731;BME280;49747;51.334;6.830;2022-12-29T00:36:13;99755.88;;;12.49;95.78
63731;BME280;49747;51.334;6.830;2022-12-29T00:38:47;99738.75;;;12.51;95.69
63731;BME280;49747;51.334;6.830;2022-12-29T00:41:33;99734.97;;;12.54;95.62
63731;BME280;49747;51.334;6.830;2022-12-29T00:44:18;99738.91;;;12.50;96.63
63731;BME280;49747;51.334;6.830;2022-12-29T00:46:45;99738.91;;;12.50;96.95
63731;BME280;49747;51.334;6.830;2022-12-29T00:49:13;99730.19;;;12.48;97.30
63731;BME280;49747;51.334;6.830;2022-12-29T00:52:10;99724.03;;;12.47;97.74
63731;BME280;49747;51.334;6.830;2022-12-29T00:54:38;99713.25;;;12.49;97.56
63731;BME280;49747;51.334;6.830;2022-12-29T00:57:07;99714.22;;;12.48;97.74
63731;BME280;49747;51.334;6.830;2022-12-29T00:59:37;99720.09;;;12.51;97.04
63731;BME280;49747;51.334;6.830;2022-12-29T01:02:04;99714.78;;;12.51;96.99
63731;BME280;49747;51.334;6.830;2022-12-29T01:04:32;99714.63;;;12.53;96.68
63731;BME280;49747;51.334;6.830;2022-12-29T01:06:58;99720.34;;;12.58;96.46
63731;BME280;49747;51.334;6.830;2022-12-29T01:09:25;99708.53;;;12.61;95.68
63731;BME280;49747;51.334;6.830;2022-12-29T01:12:11;99706.59;;;12.63;95.67
63731;BME280;49747;51.334;6.830;2022-12-29T01:14:40;99716.13;;;12.65;95.06
63731;BME280;49747;51.334;6.830;2022-12-29T01:17:06;99708.25;;;12.64;94.52
63731;BME280;49747;51.334;6.830;2022-12-29T01:19:33;99717.09;;;12.64;94.41
63731;BME280;49747;51.334;6.830;2022-12-29T01:22:00;99721.84;;;12.70;94.37
63731;BME280;49747;51.334;6.830;2022-12-29T01:24:27;99721.44;;;12.65;94.10
63731;BME280;49747;51.334;6.830;2022-12-29T01:26:54;99717.16;;;12.72;93.90
63731;BME280;49747;51.334;6.830;2022-12-29T01:29:21;99706.97;;;12.68;92.91
63731;BME280;49747;51.334;6.830;2022-12-29T01:31:48;99713.69;;;12.72;93.34
63731;BME280;49747;51.334;6.830;2022-12-29T01:34:16;99708.22;;;12.73;93.01
63731;BME280;49747;51.334;6.830;2022-12-29T01:36:43;99697.56;;;12.73;92.34
63731;BME280;49747;51.334;6.830;2022-12-29T01:39:11;99702.72;;;12.75;91.58
63731;BME280;49747;51.334;6.830;2022-12-29T01:41:38;99709.59;;;12.77;91.70
63731;BME280;49747;51.334;6.830;2022-12-29T01:47:08;99701.28;;;12.80;91.27
63731;BME280;49747;51.334;6.830;2022-12-29T01:49:36;99688.81;;;12.81;91.05
63731;BME280;49747;51.334;6.830;2022-12-29T01:52:06;99697.47;;;12.83;90.37
63731;BME280;49747;51.334;6.830;2022-12-29T01:54:43;99690.19;;;12.85;90.17
63731;BME280;49747;51.334;6.830;2022-12-29T01:57:19;99682.88;;;12.87;89.91
63731;BME280;49747;51.334;6.830;2022-12-29T01:59:52;99688.06;;;12.89;89.50
63731;BME280;49747;51.334;6.830;2022-12-29T02:02:20;99683.94;;;12.94;89.37
63731;BME280;49747;51.334;6.830;2022-12-29T02:04:47;99683.41;;;12.91;88.40
63731;BME280;49747;51.334;6.830;2022-12-29T02:07:21;99673.56;;;12.91;88.06
63731;BME280;49747;51.334;6.830;2022-12-29T02:09:50;99683.09;;;12.94;87.88
63731;BME280;49747;51.334;6.830;2022-12-29T02:12:18;99681.13;;;12.96;87.67
63731;BME280;49747;51.334;6.830;2022-12-29T02:14:46;99677.78;;;12.94;87.00
63731;BME280;49747;51.334;6.830;2022-12-29T02:17:45;99679.97;;;12.98;87.18
63731;BME280;49747;51.334;6.830;2022-12-29T02:20:37;99676.84;;;13.03;87.30
63731;BME280;49747;51.334;6.830;2022-12-29T02:23:51;99680.22;;;13.05;86.98
63731;BME280;49747;51.334;6.830;2022-12-29T02:26:50;99678.22;;;13.07;86.78
63731;BME280;49747;51.334;6.830;2022-12-29T02:38:15;99662.22;;;13.07;83.99
63731;BME280;49747;51.334;6.830;2022-12-29T02:41:05;99655.06;;;13.07;83.57
63731;BME280;49747;51.334;6.830;2022-12-29T02:43:45;99663.06;;;13.07;83.64
63731;BME280;49747;51.334;6.830;2022-12-29T02:46:34;99660.81;;;13.13;83.83
63731;BME280;49747;51.334;6.830;2022-12-29T02:52:38;99648.31;;;13.13;84.10
63731;BME280;49747;51.334;6.830;2022-12-29T02:54:56;99637.78;;;13.12;83.72
63731;BME280;49747;51.334;6.830;2022-12-29T03:10:48;99618.34;;;13.19;82.59
63731;BME280;49747;51.334;6.830;2022-12-29T03:13:26;99627.34;;;13.18;82.43
63731;BME280;49747;51.334;6.830;2022-12-29T03:21:44;99627.88;;;13.22;82.99
63731;BME280;49747;51.334;6.830;2022-12-29T03:24:40;99618.72;;;13.24;82.54
63731;BME280;49747;51.334;6.830;2022-12-29T03:27:11;99616.59;;;13.28;82.94
63731;BME280;49747;51.334;6.830;2022-12-29T03:29:43;99607.94;;;13.26;82.39
63731;BME280;49747;51.334;6.830;2022-12-29T03:32:15;99610.72;;;13.24;83.09
63731;BME280;49747;51.334;6.830;2022-12-29T03:34:44;99618.44;;;13.27;83.36
63731;BME280;49747;51.334;6.830;2022-12-29T03:37:14;99628.13;;;13.28;83.85
63731;BME280;49747;51.334;6.830;2022-12-29T03:39:44;99602.44;;;13.27;83.82
63731;BME280;49747;51.334;6.830;2022-12-29T03:42:14;99612.63;;;13.32;84.12
63731;BME280;49747;51.334;6.830;2022-12-29T03:44:44;99611.13;;;13.29;84.12
63731;BME280;49747;51.334;6.830;2022-12-29T03:47:14;99603.66;;;13.33;84.42
63731;BME280;49747;51.334;6.830;2022-12-29T03:49:43;99612.50;;;13.34;84.49
63731;BME280;49747;51.334;6.830;2022-12-29T03:52:10;99611.66;;;13.33;83.83
63731;BME280;49747;51.334;6.830;2022-12-29T03:54:41;99606.47;;;13.31;83.47
63731;BME280;49747;51.334;6.830;2022-12-29T03:57:10;99597.50;;;13.33;83.33
63731;BME280;49747;51.334;6.830;2022-12-29T03:59:54;99589.31;;;13.34;83.55
63731;BME280;49747;51.334;6.830;2022-12-29T04:02:21;99577.81;;;13.34;82.60
63731;BME280;49747;51.334;6.830;2022-12-29T04:04:47;99561.81;;;13.34;82.76
63731;BME280;49747;51.334;6.830;2022-12-29T04:07:14;99574.31;;;13.33;82.50
63731;BME280;49747;51.334;6.830;2022-12-29T04:09:41;99581.97;;;13.36;82.46
63731;BME280;49747;51.334;6.830;2022-12-29T04:12:13;99582.84;;;13.37;82.61
63731;BME280;49747;51.334;6.830;2022-12-29T04:14:40;99578.34;;;13.37;82.78
63731;BME280;49747;51.334;6.830;2022-12-29T04:17:07;99565.00;;;13.37;82.28
63731;BME280;49747;51.334;6.830;2022-12-29T04:19:34;99566.50;;;13.40;82.54
63731;BME280;49747;51.334;6.830;2022-12-29T04:22:00;99572.53;;;13.42;82.54
63731;BME280;49747;51.334;6.830;2022-12-29T04:24:28;99585.69;;;13.43;82.67
63731;BME280;49747;51.334;6.830;2022-12-29T04:26:54;99575.88;;;13.44;82.42
63731;BME280;49747;51.334;6.830;2022-12-29T04:29:30;99582.03;;;13.44;82.44
63731;BME280;49747;51.334;6.830;2022-12-29T04:32:07;99590.03;;;13.44;81.98
63731;BME280;49747;51.334;6.830;2022-12-29T04:34:38;99576.88;;;13.43;82.01
63731;BME280;49747;51.334;6.830;2022-12-29T04:37:05;99584.03;;;13.42;80.99
63731;BME280;49747;51.334;6.830;2022-12-29T04:39:31;99578.53;;;13.44;81.43
63731;BME280;49747;51.334;6.830;2022-12-29T04:42:01;99582.03;;;13.44;81.96
63731;BME280;49747;51.334;6.830;2022-12-29T04:44:28;99574.72;;;13.46;81.50
63731;BME280;49747;51.334;6.830;2022-12-29T04:47:10;99574.56;;;13.48;81.36
63731;BME280;49747;51.334;6.830;2022-12-29T04:50:03;99588.06;;;13.46;80.80
63731;BME280;49747;51.334;6.830;2022-12-29T04:52:49;99582.72;;;13.46;80.87
63731;BME280;49747;51.334;6.830;2022-12-29T04:55:16;99586.06;;;13.48;80.74
63731;BME280;49747;51.334;6.830;2022-12-29T04:57:43;99601.41;;;13.46;80.15
63731;BME280;49747;51.334;6.830;2022-12-29T05:00:14;99597.44;;;13.50;80.50
63731;BME280;49747;51.334;6.830;2022-12-29T05:02:41;99591.91;;;13.52;81.02
63731;BME280;49747;51.334;6.830;2022-12-29T05:05:08;99591.78;;;13.53;80.92
63731;BME280;49747;51.334;6.830;2022-12-29T05:07:39;99595.28;;;13.54;80.93
63731;BME280;49747;51.334;6.830;2022-12-29T05:10:07;99567.78;;;13.53;80.54
63731;BME280;49747;51.334;6.830;2022-12-29T05:12:35;99596.28;;;13.53;80.17
63731;BME280;49747;51.334;6.830;2022-12-29T05:15:04;99596.13;;;13.54;80.35
63731;BME280;49747;51.334;6.830;2022-12-29T05:17:31;99602.47;;;13.53;80.00
63731;BME280;49747;51.334;6.830;2022-12-29T05:19:57;99602.28;;;13.55;80.34
63731;BME280;49747;51.334;6.830;2022-12-29T05:22:25;99613.97;;;13.54;80.77
63731;BME280;49747;51.334;6.830;2022-12-29T05:24:53;99615.50;;;13.57;80.48
63731;BME280;49747;51.334;6.830;2022-12-29T05:27:19;99620.81;;;13.57;79.84
63731;BME280;49747;51.334;6.830;2022-12-29T05:29:52;99609.47;;;13.54;80.22
63731;BME280;49747;51.334;6.830;2022-12-29T05:32:19;99614.78;;;13.54;80.80
63731;BME280;49747;51.334;6.830;2022-12-29T05:34:46;99610.28;;;13.55;81.01
63731;BME280;49747;51.334;6.830;2022-12-29T05:37:12;99608.16;;;13.59;80.94
63731;BME280;49747;51.334;6.830;2022-12-29T05:39:40;99625.00;;;13.59;80.69
63731;BME280;49747;51.334;6.830;2022-12-29T05:42:08;99620.66;;;13.58;80.78
63731;BME280;49747;51.334;6.830;2022-12-29T05:44:45;99626.53;;;13.62;80.58
63731;BME280;49747;51.334;6.830;2022-12-29T05:47:35;99628.19;;;13.63;81.15
63731;BME280;49747;51.334;6.830;2022-12-29T05:50:24;99621.72;;;13.65;81.94
63731;BME280;49747;51.334;6.830;2022-12-29T05:53:09;99637.56;;;13.67;81.61
63731;BME280;49747;51.334;6.830;2022-12-29T05:55:37;99632.22;;;13.67;81.78
63731;BME280;49747;51.334;6.830;2022-12-29T05:58:12;99640.06;;;13.68;81.48
63731;BME280;49747;51.334;6.830;2022-12-29T06:00:40;99630.56;;;13.66;81.11
63731;BME280;49747;51.334;6.830;2022-12-29T06:03:08;99646.41;;;13.67;80.99
63731;BME280;49747;51.334;6.830;2022-12-29T06:05:35;99642.72;;;13.68;81.18
63731;BME280;49747;51.334;6.830;2022-12-29T06:08:01;99656.53;;;13.64;81.12
63731;BME280;49747;51.334;6.830;2022-12-29T06:10:28;99668.91;;;13.65;80.44
63731;BME280;49747;51.334;6.830;2022-12-29T06:13:03;99668.06;;;13.64;80.28
63731;BME280;49747;51.334;6.830;2022-12-29T06:15:34;99658.91;;;13.67;80.23
63731;BME280;49747;51.334;6.830;2022-12-29T06:18:04;99656.94;;;13.69;80.48
63731;BME280;49747;51.334;6.830;2022-12-29T06:20:30;99659.75;;;13.67;79.28
63731;BME280;49747;51.334;6.830;2022-12-29T06:22:57;99667.75;;;13.67;79.99
63731;BME280;49747;51.334;6.830;2022-12-29T06:25:24;99664.25;;;13.67;80.27
63731;BME280;49747;51.334;6.830;2022-12-29T06:27:51;99672.09;;;13.68;79.40
63731;BME280;49747;51.334;6.830;2022-12-29T06:30:18;99672.09;;;13.68;79.36
63731;BME280;49747;51.334;6.830;2022-12-29T06:32:46;99684.59;;;13.68;79.46
63731;BME280;49747;51.334;6.830;2022-12-29T06:35:13;99682.09;;;13.66;79.42
63731;BME280;49747;51.334;6.830;2022-12-29T06:37:46;99687.59;;;13.65;79.15
63731;BME280;49747;51.334;6.830;2022-12-29T06:40:12;99678.41;;;13.67;79.29
63731;BME280;49747;51.334;6.830;2022-12-29T06:42:57;99692.75;;;13.66;78.57
63731;BME280;49747;51.334;6.830;2022-12-29T06:45:56;99707.78;;;13.67;77.89
63731;BME280;49747;51.334;6.830;2022-12-29T06:48:23;99698.09;;;13.66;77.74
63731;BME280;49747;51.334;6.830;2022-12-29T06:50:49;99698.28;;;13.65;77.75
63731;BME280;49747;51.334;6.830;2022-12-29T06:53:16;99699.94;;;13.66;78.19
63731;BME280;49747;51.334;6.830;2022-12-29T06:55:43;99687.72;;;13.63;77.84
63731;BME280;49747;51.334;6.830;2022-12-29T06:58:09;99697.28;;;13.66;78.01
63731;BME280;49747;51.334;6.830;2022-12-29T07:00:36;99706.09;;;13.66;77.87
63731;BME280;49747;51.334;6.830;2022-12-29T07:03:02;99700.47;;;13.69;77.97
63731;BME280;49747;51.334;6.830;2022-12-29T07:05:29;99696.09;;;13.68;77.42
63731;BME280;49747;51.334;6.830;2022-12-29T07:07:58;99703.59;;;13.65;77.33
63731;BME280;49747;51.334;6.830;2022-12-29T07:10:25;99701.59;;;13.67;76.75
63731;BME280;49747;51.334;6.830;2022-12-29T07:12:51;99704.09;;;13.68;77.63
63731;BME280;49747;51.334;6.830;2022-12-29T07:15:18;99707.09;;;13.65;77.10
63731;BME280;49747;51.334;6.830;2022-12-29T07:17:44;99710.44;;;13.67;77.60
63731;BME280;49747;51.334;6.830;2022-12-29T07:20:11;99713.94;;;13.68;77.74
63731;BME280;49747;51.334;6.830;2022-12-29T07:22:37;99725.47;;;13.68;77.88
63731;BME280;49747;51.334;6.830;2022-12-29T07:25:04;99719.63;;;13.65;76.25
63731;BME280;49747;51.334;6.830;2022-12-29T07:27:31;99729.44;;;13.64;76.88
63731;BME280;49747;51.334;6.830;2022-12-29T07:29:58;99732.97;;;13.65;77.16
63731;BME280;49747;51.334;6.830;2022-12-29T07:32:24;99728.59;;;13.64;77.76
63731;BME280;49747;51.334;6.830;2022-12-29T07:34:51;99724.44;;;13.61;76.51
63731;BME280;49747;51.334;6.830;2022-12-29T07:37:18;99741.09;;;13.63;76.42
63731;BME280;49747;51.334;6.830;2022-12-29T07:39:44;99738.31;;;13.65;75.96
63731;BME280;49747;51.334;6.830;2022-12-29T07:42:11;99750.13;;;13.62;75.18
63731;BME280;49747;51.334;6.830;2022-12-29T07:44:41;99749.94;;;13.64;76.33
63731;BME280;49747;51.334;6.830;2022-12-29T07:47:26;99757.13;;;13.63;76.73
63731;BME280;49747;51.334;6.830;2022-12-29T07:49:53;99762.47;;;13.63;76.08
63731;BME280;49747;51.334;6.830;2022-12-29T07:52:19;99761.63;;;13.63;75.75
63731;BME280;49747;51.334;6.830;2022-12-29T07:54:46;99763.63;;;13.61;75.19
63731;BME280;49747;51.334;6.830;2022-12-29T07:57:12;99763.75;;;13.59;73.00
63731;BME280;49747;51.334;6.830;2022-12-29T07:59:39;99767.78;;;13.63;74.92
63731;BME280;49747;51.334;6.830;2022-12-29T08:02:06;99774.13;;;13.62;74.21
63731;BME280;49747;51.334;6.830;2022-12-29T08:04:33;99771.63;;;13.61;74.39
63731;BME280;49747;51.334;6.830;2022-12-29T08:06:59;99784.63;;;13.64;74.81
63731;BME280;49747;51.334;6.830;2022-12-29T08:09:26;99776.81;;;13.62;73.73
63731;BME280;49747;51.334;6.830;2022-12-29T08:11:53;99774.44;;;13.59;74.15
63731;BME280;49747;51.334;6.830;2022-12-29T08:14:19;99780.59;;;13.60;74.71
63731;BME280;49747;51.334;6.830;2022-12-29T08:16:46;99781.13;;;13.63;74.42
63731;BME280;49747;51.334;6.830;2022-12-29T08:19:13;99789.16;;;13.63;74.13
63731;BME280;49747;51.334;6.830;2022-12-29T08:21:40;99784.63;;;13.64;74.10
63731;BME280;49747;51.334;6.830;2022-12-29T08:24:08;99802.34;;;13.65;74.12
63731;BME280;49747;51.334;6.830;2022-12-29T08:26:35;99793.47;;;13.64;73.49
63731;BME280;49747;51.334;6.830;2022-12-29T08:29:01;99798.97;;;13.63;72.68
63731;BME280;49747;51.334;6.830;2022-12-29T08:31:28;99798.97;;;13.63;74.20
63731;BME280;49747;51.334;6.830;2022-12-29T08:33:54;99799.81;;;13.63;72.88
63731;BME280;49747;51.334;6.830;2022-12-29T08:36:21;99799.81;;;13.63;72.76
63731;BME280;49747;51.334;6.830;2022-12-29T08:38:47;99797.16;;;13.63;74.34
63731;BME280;49747;51.334;6.830;2022-12-29T08:41:13;99806.81;;;13.64;74.69
63731;BME280;49747;51.334;6.830;2022-12-29T08:43:40;99814.53;;;13.67;74.50
63731;BME280;49747;51.334;6.830;2022-12-29T08:46:07;99814.00;;;13.64;74.99
63731;BME280;49747;51.334;6.830;2022-12-29T08:48:33;99816.53;;;13.65;74.36
63731;BME280;49747;51.334;6.830;2022-12-29T08:51:00;99826.38;;;13.65;74.43
63731;BME280;49747;51.334;6.830;2022-12-29T08:53:26;99819.50;;;13.62;73.62
63731;BME280;49747;51.334;6.830;2022-12-29T08:55:58;99813.03;;;13.65;73.73
63731;BME280;49747;51.334;6.830;2022-12-29T08:58:35;99822.84;;;13.64;73.74
63731;BME280;49747;51.334;6.830;2022-12-29T09:01:02;99828.88;;;13.66;75.57
63731;BME280;49747;51.334;6.830;2022-12-29T09:03:29;99833.22;;;13.67;74.51
63731;BME280;49747;51.334;6.830;2022-12-29T09:06:16;99841.38;;;13.66;74.72
63731;BME280;49747;51.334;6.830;2022-12-29T09:08:44;99832.69;;;13.64;73.71
63731;BME280;49747;51.334;6.830;2022-12-29T09:11:17;99832.38;;;13.67;73.48
63731;BME280;49747;51.334;6.830;2022-12-29T09:13:44;99835.59;;;13.70;73.75
63731;BME280;49747;51.334;6.830;2022-12-29T09:16:11;99842.47;;;13.73;73.31
63731;BME280;49747;51.334;6.830;2022-12-29T09:18:39;99842.13;;;13.76;73.81
63731;BME280;49747;51.334;6.830;2022-12-29T09:21:07;99851.00;;;13.76;73.27
63731;BME280;49747;51.334;6.830;2022-12-29T09:23:34;99835.66;;;13.78;72.11
63731;BME280;49747;51.334;6.830;2022-12-29T09:26:01;99832.16;;;13.78;71.50
63731;BME280;49747;51.334;6.830;2022-12-29T09:28:28;99840.00;;;13.79;72.39
63731;BME280;49747;51.334;6.830;2022-12-29T09:30:56;99849.00;;;13.78;71.13
63731;BME280;49747;51.334;6.830;2022-12-29T09:33:23;99848.00;;;13.79;72.12
63731;BME280;49747;51.334;6.830;2022-12-29T09:35:55;99850.69;;;13.79;71.02
63731;BME280;49747;51.334;6.830;2022-12-29T09:38:23;99845.34;;;13.79;71.40
63731;BME280;49747;51.334;6.830;2022-12-29T09:40:53;99849.00;;;13.78;71.62
63731;BME280;49747;51.334;6.830;2022-12-29T09:48:34;99863.66;;;13.74;70.82
63731;BME280;49747;51.334;6.830;2022-12-29T09:51:05;99868.00;;;13.75;70.80
63731;BME280;49747;51.334;6.830;2022-12-29T09:53:41;99851.31;;;13.73;70.32
63731;BME280;49747;51.334;6.830;2022-12-29T09:56:19;99853.81;;;13.75;71.24
63731;BME280;49747;51.334;6.830;2022-12-29T09:59:13;99860.31;;;13.72;69.83
63731;BME280;49747;51.334;6.830;2022-12-29T10:02:04;99853.28;;;13.71;70.71
63731;BME280;49747;51.334;6.830;2022-12-29T10:04:40;99847.94;;;13.71;69.00
63731;BME280;49747;51.334;6.830;2022-12-29T10:07:21;99854.81;;;13.74;70.04
63731;BME280;49747;51.334;6.830;2022-12-29T10:12:55;99852.31;;;13.72;69.62
63731;BME280;49747;51.334;6.830;2022-12-29T10:18:14;99852.97;;;13.74;67.85
63731;BME280;49747;51.334;6.830;2022-12-29T10:20:52;99859.00;;;13.76;67.74
63731;BME280;49747;51.334;6.830;2022-12-29T10:23:44;99882.72;;;13.79;68.05
63731;BME280;49747;51.334;6.830;2022-12-29T10:26:17;99860.06;;;13.84;69.06
63731;BME280;49747;51.334;6.830;2022-12-29T10:28:49;99859.94;;;13.85;68.06
63731;BME280;49747;51.334;6.830;2022-12-29T10:31:25;99861.28;;;13.89;68.89
63731;BME280;49747;51.334;6.830;2022-12-29T10:33:57;99884.88;;;13.94;67.13
63731;BME280;49747;51.334;6.830;2022-12-29T10:36:34;99866.00;;;13.95;66.57
63731;BME280;49747;51.334;6.830;2022-12-29T10:39:25;99879.75;;;14.00;66.96
63731;BME280;49747;51.334;6.830;2022-12-29T10:42:11;99876.94;;;14.02;65.96
63731;BME280;49747;51.334;6.830;2022-12-29T10:44:40;99875.94;;;14.03;65.93
63731;BME280;49747;51.334;6.830;2022-12-29T10:47:14;99889.28;;;14.03;66.97
63731;BME280;49747;51.334;6.830;2022-12-29T10:49:42;99887.16;;;14.07;68.54
63731;BME280;49747;51.334;6.830;2022-12-29T10:52:11;99888.75;;;13.99;65.19
63731;BME280;49747;51.334;6.830;2022-12-29T10:54:52;99889.28;;;14.03;66.73
63731;BME280;49747;51.334;6.830;2022-12-29T10:57:38;99891.94;;;14.03;67.08
63731;BME280;49747;51.334;6.830;2022-12-29T11:00:14;99891.28;;;14.01;66.53
63731;BME280;49747;51.334;6.830;2022-12-29T11:05:41;99893.25;;;13.99;68.39
63731;BME280;49747;51.334;6.830;2022-12-29T11:08:14;99911.09;;;13.98;68.88
63731;BME280;49747;51.334;6.830;2022-12-29T11:10:44;99906.75;;;13.97;67.41
63731;BME280;49747;51.334;6.830;2022-12-29T11:13:15;99911.28;;;13.97;67.66
63731;BME280;49747;51.334;6.830;2022-12-29T11:15:47;99910.34;;;14.06;86.71
63731;BME280;49747;51.334;6.830;2022-12-29T11:18:24;99927.00;;;13.54;67.08
63731;BME280;49747;51.334;6.830;2022-12-29T11:20:56;99918.88;;;13.28;66.56
63731;BME280;49747;51.334;6.830;2022-12-29T11:28:32;99935.97;;;12.89;67.06
63731;BME280;49747;51.334;6.830;2022-12-29T11:31:01;99935.72;;;12.63;67.52
63731;BME280;49747;51.334;6.830;2022-12-29T11:33:29;99938.13;;;12.66;68.07
63731;BME280;49747;51.334;6.830;2022-12-29T11:35:58;99947.50;;;12.70;68.19
63731;BME280;49747;51.334;6.830;2022-12-29T11:38:31;99948.34;;;12.61;68.29
63731;BME280;49747;51.334;6.830;2022-12-29T11:41:00;99942.75;;;12.54;68.79
63731;BME280;49747;51.334;6.830;2022-12-29T11:43:33;99933.66;;;12.47;68.37
63731;BME280;49747;51.334;6.830;2022-12-29T11:46:01;99953.72;;;12.41;68.31
63731;BME280;49747;51.334;6.830;2022-12-29T11:48:37;99945.97;;;12.48;69.00
63731;BME280;49747;51.334;6.830;2022-12-29T11:51:06;99955.94;;;12.46;68.75
63731;BME280;49747;51.334;6.830;2022-12-29T11:53:42;99951.44;;;12.56;68.86
63731;BME280;49747;51.334;6.830;2022-12-29T11:56:13;99971.50;;;12.41;68.95
63731;BME280;49747;51.334;6.830;2022-12-29T11:58:41;99956.63;;;12.48;68.46
63731;BME280;49747;51.334;6.830;2022-12-29T12:04:18;99971.34;;;12.32;68.81
63731;BME280;49747;51.334;6.830;2022-12-29T12:07:03;99969.13;;;12.47;68.66
63731;BME280;49747;51.334;6.830;2022-12-29T12:09:51;99965.34;;;12.50;68.48
63731;BME280;49747;51.334;6.830;2022-12-29T12:12:32;99960.56;;;12.44;69.11
63731;BME280;49747;51.334;6.830;2022-12-29T12:15:02;99968.84;;;12.41;68.52
63731;BME280;49747;51.334;6.830;2022-12-29T12:23:44;99991.13;;;12.40;69.24
63731;BME280;49747;51.334;6.830;2022-12-29T12:26:21;99978.66;;;12.30;69.14
63731;BME280;49747;51.334;6.830;2022-12-29T12:29:00;99990.56;;;12.26;69.61
63731;BME280;49747;51.334;6.830;2022-12-29T12:34:15;99987.66;;;12.29;69.04
63731;BME280;49747;51.334;6.830;2022-12-29T12:36:49;99994.06;;;12.27;69.27
63731;BME280;49747;51.334;6.830;2022-12-29T12:44:43;99995.75;;;12.18;69.80
63731;BME280;49747;51.334;6.830;2022-12-29T12:52:48;99997.44;;;12.19;69.53
63731;BME280;49747;51.334;6.830;2022-12-29T13:00:54;100009.34;;;12.15;70.27
63731;BME280;49747;51.334;6.830;2022-12-29T13:03:44;100012.84;;;12.16;69.78
63731;BME280;49747;51.334;6.830;2022-12-29T13:07:06;100008.91;;;12.20;69.71
63731;BME280;49747;51.334;6.830;2022-12-29T13:09:50;100011.16;;;12.24;69.81
63731;BME280;49747;51.334;6.830;2022-12-29T13:12:35;100002.91;;;12.18;70.03
63731;BME280;49747;51.334;6.830;2022-12-29T13:15:36;100006.81;;;12.14;70.48
63731;BME280;49747;51.334;6.830;2022-12-29T13:21:27;100011.72;;;12.28;70.04
63731;BME280;49747;51.334;6.830;2022-12-29T13:26:35;100021.81;;;12.15;71.78
63731;BME280;49747;51.334;6.830;2022-12-29T13:29:06;100015.09;;;12.20;71.49
63731;BME280;49747;51.334;6.830;2022-12-29T13:37:01;100030.50;;;12.17;71.62
63731;BME280;49747;51.334;6.830;2022-12-29T13:39:35;100021.53;;;12.18;71.55
63731;BME280;49747;51.334;6.830;2022-12-29T13:42:04;100028.41;;;12.20;72.05
63731;BME280;49747;51.334;6.830;2022-12-29T13:44:39;100026.19;;;12.25;71.78
63731;BME280;49747;51.334;6.830;2022-12-29T13:47:20;100030.53;;;12.26;71.03
63731;BME280;49747;51.334;6.830;2022-12-29T13:49:50;100025.31;;;12.15;71.61
63731;BME280;49747;51.334;6.830;2022-12-29T13:52:35;100041.19;;;12.26;71.70
63731;BME280;49747;51.334;6.830;2022-12-29T13:55:26;100018.72;;;12.87;92.29
63731;BME280;49747;51.334;6.830;2022-12-29T13:58:03;100037.41;;;12.58;70.61
63731;BME280;49747;51.334;6.830;2022-12-29T14:00:38;100031.38;;;12.46;69.67
63731;BME280;49747;51.334;6.830;2022-12-29T14:06:05;100026.19;;;12.45;69.25
63731;BME280;49747;51.334;6.830;2022-12-29T14:08:38;100033.06;;;12.47;69.08
63731;BME280;49747;51.334;6.830;2022-12-29T14:11:09;100039.06;;;12.20;69.04
63731;BME280;49747;51.334;6.830;2022-12-29T14:13:42;100042.16;;;12.25;69.35
63731;BME280;49747;51.334;6.830;2022-12-29T14:18:52;100044.53;;;12.28;69.22
63731;BME280;49747;51.334;6.830;2022-12-29T14:21:23;100051.13;;;12.24;69.25
63731;BME280;49747;51.334;6.830;2022-12-29T14:24:26;100052.78;;;12.16;69.64
63731;BME280;49747;51.334;6.830;2022-12-29T14:26:47;100047.19;;;12.19;69.86
63731;BME280;49747;51.334;6.830;2022-12-29T14:34:58;100070.44;;;12.07;69.56
63731;BME280;49747;51.334;6.830;2022-12-29T14:37:30;100056.59;;;12.13;69.01
63731;BME280;49747;51.334;6.830;2022-12-29T14:40:19;100071.97;;;12.10;69.31
63731;BME280;49747;51.334;6.830;2022-12-29T14:42:51;100066.81;;;12.18;69.72
63731;BME280;49747;51.334;6.830;2022-12-29T14:47:47;100072.41;;;12.15;69.64
63731;BME280;49747;51.334;6.830;2022-12-29T14:50:15;100073.09;;;12.17;69.70
63731;BME280;49747;51.334;6.830;2022-12-29T14:52:47;100072.19;;;11.97;69.81
63731;BME280;49747;51.334;6.830;2022-12-29T14:57:48;100080.38;;;12.05;70.15
63731;BME280;49747;51.334;6.830;2022-12-29T15:00:23;100073.91;;;11.98;70.28
63731;BME280;49747;51.334;6.830;2022-12-29T15:03:14;100078.97;;;12.01;70.37
63731;BME280;49747;51.334;6.830;2022-12-29T15:05:55;100079.66;;;12.03;69.83
63731;BME280;49747;51.334;6.830;2022-12-29T15:08:28;100076.41;;;11.90;69.85
63731;BME280;49747;51.334;6.830;2022-12-29T15:11:20;100082.25;;;11.83;70.22
63731;BME280;49747;51.334;6.830;2022-12-29T15:13:48;100077.16;;;11.80;70.38
63731;BME280;49747;51.334;6.830;2022-12-29T15:16:23;100082.38;;;11.82;69.99
63731;BME280;49747;51.334;6.830;2022-12-29T15:18:50;100090.66;;;11.89;70.41